Time;durP1;ratioP1;P1;durP2;ratioP2;P2;SDS_P1;SDS_P2;PMS_P1;PMS_P2;Temp;Humidity;BMP_temperature;BMP_pressure;BME280_temperature;BME280_humidity;BME280_pressure;Samples;Min_cycle;Max_cycle;Signal;HPM_P1;HPM_P2
2021/05/30 07:31:36;;;;;;;4.35;2.58;;;;;;;;;;5090425;27;20155;-78
2021/05/30 07:34:02;;;;;;;3.90;2.28;;;;;;;;;;5093354;28;20119;-78
2021/05/30 07:36:29;;;;;;;4.20;2.92;;;;;;;;;;5089909;28;20403;-79
2021/05/30 07:38:58;;;;;;;6.20;2.95;;;;;;;;;;5090478;28;20036;-79
2021/05/30 07:41:24;;;;;;;3.42;2.55;;;;;;;;;;5095483;28;20028;-79
2021/05/30 07:43:52;;;;;;;5.55;2.67;;;;;;;;;;5098106;28;20039;-78
2021/05/30 07:46:18;;;;;;;3.28;2.38;;;;;;;;;;5095314;28;20077;-76
2021/05/30 07:48:44;;;;;;;3.92;2.90;;;;;;;;;;5088666;28;20426;-75
2021/05/30 07:51:10;;;;;;;4.05;2.78;;;;;;;;;;5088296;28;20031;-76
2021/05/30 07:53:36;;;;;;;5.57;2.38;;;;;;;;;;5076823;28;20025;-76
2021/05/30 07:56:02;;;;;;;4.18;2.90;;;;;;;;;;5068756;28;20031;-76
2021/05/30 07:58:28;;;;;;;4.97;2.60;;;;;;;;;;5067166;28;20082;-76
2021/05/30 08:00:54;;;;;;;3.90;2.50;;;;;;;;;;5073811;28;20029;-78
2021/05/30 08:03:21;;;;;;;3.17;2.47;;;;;;;;;;5080707;28;20032;-78
2021/05/30 08:05:48;;;;;;;4.53;2.45;;;;;;;;;;5100408;28;20033;-79
2021/05/30 08:08:14;;;;;;;4.22;2.60;;;;;;;;;;5088228;28;20028;-77
2021/05/30 08:10:40;;;;;;;3.38;2.25;;;;;;;;;;5086679;28;20028;-78
2021/05/30 08:13:06;;;;;;;4.45;3.00;;;;;;;;;;5090769;28;20078;-78
2021/05/30 08:15:32;;;;;;;4.82;2.95;;;;;;;;;;5093041;28;20031;-78
2021/05/30 08:17:59;;;;;;;4.28;2.85;;;;;;;;;;5086231;28;20024;-78
2021/05/30 08:20:25;;;;;;;3.85;2.42;;;;;;;;;;5070492;28;20401;-79
2021/05/30 08:22:52;;;;;;;4.43;2.70;;;;;;;;;;5068804;28;20029;-78
2021/05/30 08:25:18;;;;;;;6.43;2.40;;;;;;;;;;5070229;28;20116;-77
2021/05/30 08:27:45;;;;;;;3.97;2.58;;;;;;;;;;5072859;28;20067;-76
2021/05/30 08:30:11;;;;;;;4.25;2.78;;;;;;;;;;5081843;28;20071;-78
2021/05/30 08:32:38;;;;;;;4.60;2.60;;;;;;;;;;5093116;28;20040;-78
2021/05/30 08:35:05;;;;;;;4.43;2.50;;;;;;;;;;5081560;28;20023;-79
2021/05/30 08:37:31;;;;;;;3.70;2.60;;;;;;;;;;5089427;28;20093;-78
2021/05/30 08:39:57;;;;;;;4.78;2.58;;;;;;;;;;5087952;28;20512;-78
2021/05/30 08:42:23;;;;;;;3.05;2.10;;;;;;;;;;5079143;28;20046;-78
2021/05/30 08:44:50;;;;;;;5.00;2.53;;;;;;;;;;5075861;28;20028;-78
2021/05/30 08:47:18;;;;;;;3.78;2.45;;;;;;;;;;5077144;28;20086;-78
2021/05/30 08:49:44;;;;;;;4.03;2.85;;;;;;;;;;5073981;28;20497;-78
2021/05/30 08:52:10;;;;;;;2.55;2.03;;;;;;;;;;5074968;28;20029;-79
2021/05/30 08:54:36;;;;;;;4.70;2.40;;;;;;;;;;5074791;28;20033;-78
2021/05/30 08:57:02;;;;;;;4.95;2.72;;;;;;;;;;5076984;28;20099;-77
2021/05/30 08:59:30;;;;;;;4.93;2.72;;;;;;;;;;5095043;28;20046;-78
2021/05/30 09:02:00;;;;;;;7.10;2.33;;;;;;;;;;5096027;28;20021;-77
2021/05/30 09:04:31;;;;;;;4.30;2.60;;;;;;;;;;5096216;28;20078;-78
2021/05/30 09:06:57;;;;;;;3.17;2.20;;;;;;;;;;5094997;28;20391;-77
2021/05/30 09:09:23;;;;;;;4.22;2.40;;;;;;;;;;5074117;28;20029;-77
2021/05/30 09:11:50;;;;;;;2.63;2.17;;;;;;;;;;5074087;28;20058;-77
2021/05/30 09:14:23;;;;;;;3.33;1.98;;;;;;;;;;5075003;28;20016;-78
2021/05/30 09:16:52;;;;;;;4.15;2.63;;;;;;;;;;5073147;28;20103;-77
2021/05/30 09:19:37;;;;;;;3.42;2.60;;;;;;;;;;5073816;28;20040;-78
2021/05/30 09:22:26;;;;;;;3.65;1.90;;;;;;;;;;5077300;28;20021;-80
2021/05/30 09:24:52;;;;;;;3.60;2.13;;;;;;;;;;5072360;28;20071;-80
2021/05/30 09:27:18;;;;;;;4.15;2.10;;;;;;;;;;5087089;28;20057;-80
2021/05/30 09:29:45;;;;;;;3.75;2.20;;;;;;;;;;5103486;28;20070;-77
2021/05/30 09:32:11;;;;;;;5.32;2.20;;;;;;;;;;5100092;28;20024;-78
2021/05/30 09:34:38;;;;;;;3.00;1.80;;;;;;;;;;5098848;28;20205;-78
2021/05/30 09:37:05;;;;;;;3.13;2.25;;;;;;;;;;5090176;28;20020;-81
2021/05/30 09:39:35;;;;;;;6.85;4.13;;;;;;;;;;5076861;28;20021;-80
2021/05/30 09:42:20;;;;;;;3.42;1.75;;;;;;;;;;5080819;28;20045;-81
2021/05/30 09:44:56;;;;;;;2.67;1.67;;;;;;;;;;5079795;28;20055;-81
2021/05/30 09:47:32;;;;;;;2.80;1.73;;;;;;;;;;5102063;28;20032;-79
2021/05/30 09:49:58;;;;;;;4.32;1.83;;;;;;;;;;5106086;28;20054;-80
2021/05/30 09:52:44;;;;;;;3.42;1.90;;;;;;;;;;5099070;28;20043;-80
2021/05/30 09:55:14;;;;;;;1.95;1.65;;;;;;;;;;5098557;28;20125;-81
2021/05/30 09:57:40;;;;;;;2.38;1.50;;;;;;;;;;5090958;28;20221;-77
2021/05/30 10:00:14;;;;;;;3.00;1.60;;;;;;;;;;5079688;28;20556;-79
2021/05/30 10:02:41;;;;;;;4.82;1.70;;;;;;;;;;5076728;28;20035;-80
2021/05/30 10:05:07;;;;;;;2.78;1.60;;;;;;;;;;5077952;28;20056;-78
2021/05/30 10:07:34;;;;;;;3.83;1.60;;;;;;;;;;5074436;28;20052;-78
2021/05/30 10:09:59;;;;;;;2.50;1.17;;;;;;;;;;5071152;28;20107;-77
2021/05/30 10:12:26;;;;;;;3.95;1.70;;;;;;;;;;5076066;28;20063;-76
2021/05/30 10:14:52;;;;;;;5.10;1.50;;;;;;;;;;5076237;28;20046;-78
2021/05/30 10:17:19;;;;;;;3.22;1.83;;;;;;;;;;5074076;28;20131;-75
2021/05/30 10:19:46;;;;;;;4.57;2.00;;;;;;;;;;5088835;28;20028;-77
2021/05/30 10:22:12;;;;;;;3.42;2.03;;;15.50;99.90;;;;;;5094526;28;20024;-78
2021/05/30 10:24:42;;;;;;;5.35;2.78;;;25.60;55.30;;;;;;5097556;28;20048;-78
2021/05/30 10:27:18;;;;;;;4.25;2.05;;;26.00;53.90;;;;;;5090331;28;20033;-76
2021/05/30 10:30:03;;;;;;;2.78;1.40;;;;;;;;;;5078342;28;20066;-77
2021/05/30 10:32:29;;;;;;;5.93;1.80;;;;;;;;;;5091264;28;20078;-78
2021/05/30 10:35:17;;;;;;;1.48;1.00;;;;;;;;;;5090133;28;20482;-78
2021/05/30 10:37:45;;;;;;;1.65;1.27;;;;;;;;;;5076939;28;20028;-78
2021/05/30 10:40:33;;;;;;;6.60;2.00;;;;;;;;;;5078233;28;20031;-79
2021/05/30 10:43:11;;;;;;;2.97;1.35;;;;;;;;;;5073902;28;20021;-77
2021/05/30 10:45:37;;;;;;;5.45;1.13;;;;;;;;;;5074892;28;20039;-77
2021/05/30 10:48:03;;;;;;;2.55;1.15;;;;;;;;;;5073560;28;20035;-76
2021/05/30 10:50:41;;;;;;;2.13;1.20;;;;;;;;;;5070496;28;20089;-76
2021/05/30 10:53:26;;;;;;;3.78;1.40;;;;;;;;;;5070670;28;20033;-75
2021/05/30 10:55:52;;;;;;;3.05;1.33;;;;;;;;;;5072193;28;20031;-76
2021/05/30 10:58:19;;;;;;;3.83;1.48;;;;;;;;;;5070858;28;20028;-75
2021/05/30 11:00:46;;;;;;;2.83;1.30;;;;;;;;;;5059171;28;20025;-75
2021/05/30 11:03:13;;;;;;;4.05;1.40;;;;;;;;;;5059993;28;20035;-76
2021/05/30 11:05:39;;;;;;;2.63;1.30;;;;;;;;;;5059129;28;20025;-76
2021/05/30 11:08:05;;;;;;;2.75;1.70;;;;;;;;;;5057639;28;20028;-75
2021/05/30 11:10:31;;;;;;;4.55;1.80;;;;;;;;;;5056886;28;20027;-76
2021/05/30 11:12:59;;;;;;;4.88;3.45;;;;;;;;;;5055883;28;20029;-76
2021/05/30 11:15:26;;;;;;;4.03;1.80;;;;;;;;;;5057326;28;20038;-76
2021/05/30 11:17:54;;;;;;;3.22;1.80;;;;;;;;;;5056938;28;20025;-76
2021/05/30 11:20:38;;;;;;;2.88;1.17;;;;;;;;;;5061197;28;20679;-76
2021/05/30 11:23:05;;;;;;;5.53;1.77;;;;;;;;;;5060667;28;20068;-76
2021/05/30 11:25:37;;;;;;;5.32;2.50;;;26.10;52.60;;;;;;5059585;28;20032;-76
2021/05/30 11:28:08;;;;;;;4.03;2.72;;;27.90;45.20;;;;;;5061193;28;20025;-76
2021/05/30 11:30:55;;;;;;;1.98;1.20;;;27.70;45.10;;;;;;5059209;28;20047;-76
2021/05/30 11:33:21;;;;;;;2.83;1.50;;;27.70;45.30;;;;;;5062468;28;20048;-76
2021/05/30 11:35:49;;;;;;;2.72;1.40;;;27.50;45.60;;;;;;5061239;28;20052;-76
2021/05/30 11:38:15;;;;;;;4.60;1.55;;;27.70;45.00;;;;;;5058932;28;20024;-76
2021/05/30 11:40:41;;;;;;;1.65;1.25;;;27.70;45.10;;;;;;5058535;28;20031;-76
2021/05/30 11:43:17;;;;;;;1.92;1.38;;;27.70;45.30;;;;;;5065089;28;20040;-76
2021/05/30 11:45:45;;;;;;;1.90;1.48;;;27.90;44.10;;;;;;5053082;28;20032;-76
2021/05/30 11:48:13;;;;;;;4.68;1.67;;;28.50;45.30;;;;;;5071050;28;20028;-76
2021/05/30 11:50:51;;;;;;;3.15;1.50;;;28.40;44.10;;;;;;5070371;28;20032;-75
2021/05/30 11:53:27;;;;;;;2.25;1.60;;;28.00;44.80;;;;;;5071204;28;20029;-76
2021/05/30 11:55:53;;;;;;;1.23;1.02;;;27.80;45.60;;;;;;5072124;28;20396;-76
2021/05/30 11:58:19;;;;;;;3.85;1.52;;;27.80;44.40;;;;;;5068980;28;20036;-75
2021/05/30 12:00:45;;;;;;;2.70;1.52;;;27.00;45.80;;;;;;5079673;28;20032;-76
2021/05/30 12:03:12;;;;;;;2.25;1.40;;;26.70;45.20;;;;;;5091145;28;20031;-76
2021/05/30 12:05:38;;;;;;;1.85;1.17;;;26.90;44.90;;;;;;5091271;28;20059;-76
2021/05/30 12:08:17;;;;;;;2.20;1.40;;;26.50;45.40;;;;;;5091294;28;20020;-76
2021/05/30 12:10:56;;;;;;;4.25;1.40;;;26.50;45.20;;;;;;5075249;28;20489;-76
2021/05/30 12:13:31;;;;;;;2.60;1.42;;;27.20;44.90;;;;;;5071196;28;20472;-76
2021/05/30 12:15:59;;;;;;;2.47;1.08;;;27.30;44.30;;;;;;5069864;28;20519;-76
2021/05/30 12:18:27;;;;;;;2.33;1.20;;;26.70;44.50;;;;;;5077036;28;20021;-75
2021/05/30 12:20:59;;;;;;;2.17;1.45;;;26.50;45.10;;;;;;5079061;28;20032;-76
2021/05/30 12:23:25;;;;;;;2.92;1.58;;;26.70;44.60;;;;;;5085320;28;20087;-76
2021/05/30 12:25:56;;;;;;;2.28;1.27;;;27.30;46.40;;;;;;5075409;28;20508;-76
2021/05/30 12:28:24;;;;;;;1.87;1.20;;;27.70;44.10;;;;;;5086683;28;20028;-76
2021/05/30 12:30:52;;;;;;;1.88;1.10;;;28.40;43.70;;;;;;5092308;28;20036;-76
2021/05/30 12:33:19;;;;;;;1.50;1.40;;;28.80;42.50;;;;;;5094829;28;20028;-76
2021/05/30 12:35:52;;;;;;;1.63;1.33;;;29.30;43.30;;;;;;5094215;28;20108;-76
2021/05/30 12:38:19;;;;;;;2.40;1.42;;;28.80;42.80;;;;;;5072832;28;20029;-76
2021/05/30 12:40:49;;;;;;;2.70;1.48;;;29.10;43.10;;;;;;5073642;28;20055;-76
2021/05/30 12:43:15;;;;;;;3.05;1.50;;;29.70;41.40;;;;;;5074158;28;20078;-76
2021/05/30 12:46:16;;;;;;;3.35;1.50;;;30.10;41.50;;;;;;5075529;28;20031;-76
2021/05/30 12:48:44;;;;;;;3.63;1.58;;;30.40;41.50;;;;;;5031704;28;20037;-76
2021/05/30 12:51:16;;;;;;;2.38;1.38;;;30.70;40.80;;;;;;5065580;28;20036;-76
2021/05/30 12:53:42;;;;;;;2.90;1.52;;;31.00;41.20;;;;;;5072917;28;20056;-76
2021/05/30 12:56:16;;;;;;;1.88;1.45;;;31.00;40.50;;;;;;5074159;28;20032;-76
2021/05/30 12:58:41;;;;;;;2.10;1.52;;;31.50;40.10;;;;;;5078525;28;20554;-76
2021/05/30 13:01:23;;;;;;;6.95;2.55;;;30.70;40.10;;;;;;5073448;28;20103;-76
2021/05/30 13:03:50;;;;;;;;;;;30.00;39.80;;;;;;5074237;28;20035;-76
2021/05/30 13:06:16;;;;;;;3.40;1.35;;;29.80;40.30;;;;;;5086396;28;19916;-76
2021/05/30 13:08:42;;;;;;;5.30;1.52;;;30.40;40.40;;;;;;5093879;28;20142;-76
2021/05/30 13:11:08;;;;;;;2.25;1.65;;;30.10;40.00;;;;;;5089431;28;20107;-76
2021/05/30 13:13:42;;;;;;;2.80;1.67;;;29.40;40.10;;;;;;5072330;28;20058;-76
2021/05/30 13:16:08;;;;;;;4.47;1.60;;;29.90;40.40;;;;;;5082048;28;20031;-76
2021/05/30 13:18:53;;;;;;;6.72;1.65;;;30.90;39.50;;;;;;5093748;28;20056;-76
2021/05/30 13:21:39;;;;;;;2.88;1.40;;;31.40;39.30;;;;;;5094048;28;20056;-75
2021/05/30 13:24:10;;;;;;;3.72;1.30;;;31.80;39.30;;;;;;5093717;28;20048;-75
2021/05/30 13:26:50;;;;;;;2.83;1.80;;;30.90;39.00;;;;;;5093685;28;20029;-75
